Time;durP1;ratioP1;P1;durP2;ratioP2;P2;SDS_P1;SDS_P2;PMS_P1;PMS_P2;Temp;Humidity;BMP_temperature;BMP_pressure;BME280_temperature;BME280_humidity;BME280_pressure;Samples;Min_cycle;Max_cycle;Signal;HPM_P1;HPM_P2
2022/05/06 00:00:18;;;;;;;;;;;;;;;14.09;65.52;98476.47;4980770;28;19980;-57
2022/05/06 00:02:46;;;;;;;;;;;;;;;14.12;65.35;98476.63;4977146;28;19925;-57
2022/05/06 00:05:15;;;;;;;;;;;;;;;14.20;65.39;98476.94;4976876;28;19973;-57
2022/05/06 00:07:43;;;;;;;;;;;;;;;14.38;64.53;98478.53;4986279;28;19956;-57
2022/05/06 00:10:14;;;;;;;;;;;;;;;14.37;64.99;98475.00;4977953;28;19957;-57
2022/05/06 00:12:42;;;;;;;;;;;;;;;14.42;63.90;98474.03;4978750;28;19926;-57
2022/05/06 00:15:11;;;;;;;;;;;;;;;14.41;62.37;98475.19;4978998;28;19936;-57
2022/05/06 00:17:41;;;;;;;;;;;;;;;14.46;62.53;98480.47;4978572;28;20024;-57
2022/05/06 00:20:09;;;;;;;;;;;;;;;14.47;63.10;98470.34;4977652;28;19927;-57
2022/05/06 00:22:37;;;;;;;;;;;;;;;14.39;63.01;98470.03;4977976;28;20417;-58
2022/05/06 00:25:05;;;;;;;;;;;;;;;14.46;62.58;98471.47;4978616;28;19965;-58
2022/05/06 00:27:33;;;;;;;;;;;;;;;14.49;62.05;98468.13;4976620;28;19930;-57
2022/05/06 00:30:04;;;;;;;;;;;;;;;14.41;62.03;98462.31;4975972;28;20306;-56
2022/05/06 00:32:33;;;;;;;;;;;;;;;14.33;62.51;98470.53;4977818;28;19934;-56
2022/05/06 00:35:02;;;;;;;;;;;;;;;14.36;62.45;98475.34;4977447;28;19934;-56
2022/05/06 00:37:30;;;;;;;;;;;;;;;14.19;62.59;98472.63;4979176;28;20032;-56
2022/05/06 00:39:58;;;;;;;;;;;;;;;14.18;62.82;98466.34;4977295;28;19933;-56
2022/05/06 00:42:26;;;;;;;;;;;;;;;14.16;62.77;98476.78;4979360;28;19929;-59
2022/05/06 00:44:54;;;;;;;;;;;;;;;14.15;63.43;98466.97;4976746;28;20060;-56
2022/05/06 00:47:27;;;;;;;;;;;;;;;14.02;63.28;98471.47;4976585;28;19925;-54
2022/05/06 00:50:00;;;;;;;;;;;;;;;14.06;63.11;98467.00;4976699;28;19925;-56
2022/05/06 00:52:30;;;;;;;;;;;;;;;13.89;63.19;98467.75;4967753;28;20005;-57
2022/05/06 00:54:58;;;;;;;;;;;;;;;13.97;63.77;98474.38;4978602;28;19934;-56
2022/05/06 00:57:51;;;;;;;;;;;;;;;14.00;62.85;98465.50;4980365;28;19993;-56
2022/05/06 01:00:19;;;;;;;;;;;;;;;14.04;62.64;98463.75;4977624;28;19965;-56
2022/05/06 01:02:48;;;;;;;;;;;;;;;14.07;62.94;98462.34;4983373;28;20322;-56
2022/05/06 01:05:16;;;;;;;;;;;;;;;14.02;63.17;98460.56;4978558;28;20441;-57
2022/05/06 01:07:46;;;;;;;;;;;;;;;14.08;61.80;98463.94;4979063;28;19967;-56
2022/05/06 01:10:14;;;;;;;;;;;;;;;14.07;61.91;98463.13;4981898;28;20378;-56
2022/05/06 01:12:43;;;;;;;;;;;;;;;14.04;62.26;98458.28;4980421;28;20292;-56
2022/05/06 01:15:19;;;;;;;;;;;;;;;13.96;61.85;98461.84;4969302;28;20379;-57
2022/05/06 01:17:54;;;;;;;;;;;;;;;13.82;62.45;98463.91;4977112;28;19925;-55
2022/05/06 01:20:24;;;;;;;;;;;;;;;13.55;62.45;98460.31;4976328;28;20406;-57
2022/05/06 01:22:53;;;;;;;;;;;;;;;13.58;62.78;98461.59;4980583;28;19926;-57
2022/05/06 01:25:22;;;;;;;;;;;;;;;13.53;63.04;98470.75;4983638;28;19981;-56
2022/05/06 01:27:52;;;;;;;;;;;;;;;13.66;62.10;98473.66;4981558;28;19933;-56
2022/05/06 01:30:23;;;;;;;;;;;;;;;13.66;62.87;98476.41;4976270;28;20387;-56
2022/05/06 01:32:52;;;;;;;;;;;;;;;13.45;62.61;98479.69;4982310;28;20441;-56
2022/05/06 01:35:21;;;;;;;;;;;;;;;13.27;63.59;98473.38;4978275;28;19926;-56
2022/05/06 01:37:54;;;;;;;;;;;;;;;13.19;63.79;98470.59;4980758;28;20005;-56
2022/05/06 01:40:24;;;;;;;;;;;;;;;13.26;63.59;98479.97;4985205;28;19930;-56
2022/05/06 01:42:56;;;;;;;;;;;;;;;13.35;63.60;98474.53;4980807;28;20406;-55
2022/05/06 01:45:26;;;;;;;;;;;;;;;13.47;63.23;98477.44;4986322;28;19933;-56
2022/05/06 01:47:54;;;;;;;;;;;;;;;13.34;63.24;98468.25;4976322;28;19926;-56
2022/05/06 01:53:19;;;;;;;;;;;;;;;13.51;62.57;98477.63;4980068;28;19932;-56
2022/05/06 01:55:50;;;;;;;;;;;;;;;13.62;62.70;98473.50;4977859;28;19973;-56
2022/05/06 01:58:24;;;;;;;;;;;;;;;13.59;62.01;98465.94;4987466;28;19926;-59
2022/05/06 02:00:57;;;;;;;;;;;;;;;13.58;62.13;98467.88;4987207;28;19926;-58
2022/05/06 02:06:52;;;;;;;;;;;;;;;13.50;62.05;98474.09;4981634;28;19929;-59
2022/05/06 02:09:47;;;;;;;;;;;;;;;13.58;62.45;98456.13;4985879;28;19965;-59
2022/05/06 02:12:23;;;;;;;;;;;;;;;13.40;61.86;98460.75;4994354;28;19933;-58
2022/05/06 02:19:06;;;;;;;;;;;;;;;13.40;61.67;98471.66;4975256;28;19956;-58
2022/05/06 02:21:54;;;;;;;;;;;;;;;13.36;60.93;98467.94;4972748;28;19945;-55
2022/05/06 02:24:41;;;;;;;;;;;;;;;13.43;60.43;98472.97;4980719;28;20674;-56
2022/05/06 02:27:37;;;;;;;;;;;;;;;13.25;61.07;98470.16;4975040;28;19926;-57
2022/05/06 02:33:15;;;;;;;;;;;;;;;13.18;61.33;98474.44;4976112;28;19964;-57
2022/05/06 02:35:54;;;;;;;;;;;;;;;13.23;60.04;98475.13;4983174;28;20362;-56
2022/05/06 02:38:28;;;;;;;;;;;;;;;13.27;60.01;98467.13;4979499;28;19930;-56
2022/05/06 02:40:57;;;;;;;;;;;;;;;13.29;60.46;98475.78;4979384;28;20020;-56
2022/05/06 02:43:29;;;;;;;;;;;;;;;13.32;59.92;98480.63;4979217;28;19926;-55
2022/05/06 02:45:57;;;;;;;;;;;;;;;13.33;59.62;98474.84;4977053;28;19956;-55
2022/05/06 02:48:28;;;;;;;;;;;;;;;13.18;59.90;98474.44;4978656;28;19934;-56
2022/05/06 02:50:56;;;;;;;;;;;;;;;13.02;60.41;98472.13;4978363;28;19926;-56
2022/05/06 02:53:31;;;;;;;;;;;;;;;13.14;59.89;98470.72;4983305;28;19934;-56
2022/05/06 02:56:01;;;;;;;;;;;;;;;13.09;60.78;98466.19;4984285;28;19925;-56
2022/05/06 02:58:42;;;;;;;;;;;;;;;13.08;60.41;98465.41;4987154;28;19930;-56
2022/05/06 03:01:10;;;;;;;;;;;;;;;13.10;60.49;98474.09;4984021;28;20067;-56
2022/05/06 03:03:40;;;;;;;;;;;;;;;12.97;60.58;98464.06;4966975;28;19957;-57
2022/05/06 03:06:16;;;;;;;;;;;;;;;12.88;60.62;98465.94;4983729;28;19934;-56
2022/05/06 03:08:46;;;;;;;;;;;;;;;12.95;60.39;98465.50;4977539;28;19934;-56
2022/05/06 03:11:18;;;;;;;;;;;;;;;12.81;60.59;98465.59;4981331;28;19932;-56
2022/05/06 03:13:56;;;;;;;;;;;;;;;12.79;60.82;98459.66;4978336;28;19926;-56
2022/05/06 03:16:30;;;;;;;;;;;;;;;12.73;60.94;98467.16;4988147;28;19926;-55
2022/05/06 03:19:03;;;;;;;;;;;;;;;12.65;61.07;98465.16;4980886;28;19926;-57
2022/05/06 03:21:31;;;;;;;;;;;;;;;12.74;60.39;98460.56;4975399;28;19926;-56
2022/05/06 03:23:59;;;;;;;;;;;;;;;12.68;60.54;98461.81;4974452;28;19953;-56
2022/05/06 03:26:29;;;;;;;;;;;;;;;12.66;60.82;98457.78;4982790;28;19946;-54
2022/05/06 03:28:58;;;;;;;;;;;;;;;12.54;61.39;98463.81;4979041;28;19933;-55
2022/05/06 03:31:26;;;;;;;;;;;;;;;12.52;61.11;98461.41;4971487;28;20016;-56
2022/05/06 03:33:59;;;;;;;;;;;;;;;12.66;60.89;98465.97;4998537;28;19944;-57
2022/05/06 03:36:32;;;;;;;;;;;;;;;12.69;60.28;98473.53;4983738;28;20449;-56
2022/05/06 03:39:30;;;;;;;;;;;;;;;12.81;60.12;98473.75;4980522;28;20291;-56
2022/05/06 03:42:03;;;;;;;;;;;;;;;12.78;60.50;98469.75;4970017;28;20345;-56
2022/05/06 03:44:33;;;;;;;;;;;;;;;12.78;60.91;98474.38;4982033;28;19981;-57
2022/05/06 03:47:01;;;;;;;;;;;;;;;12.79;60.54;98474.09;4981164;28;20288;-54
2022/05/06 03:49:34;;;;;;;;;;;;;;;12.91;61.58;98476.22;4984236;28;19930;-58
2022/05/06 03:52:03;;;;;;;;;;;;;;;13.04;60.44;98479.97;4978871;28;20049;-56
2022/05/06 03:54:33;;;;;;;;;;;;;;;13.06;60.98;98478.56;4982751;28;20029;-56
2022/05/06 03:57:02;;;;;;;;;;;;;;;13.15;61.14;98481.31;4982448;28;19932;-57
2022/05/06 03:59:33;;;;;;;;;;;;;;;13.22;60.73;98483.63;4986580;28;19933;-57
2022/05/06 04:02:10;;;;;;;;;;;;;;;13.16;60.66;98484.88;4982307;28;20024;-57
2022/05/06 04:04:38;;;;;;;;;;;;;;;13.24;61.13;98486.84;4979068;28;20274;-59
2022/05/06 04:07:09;;;;;;;;;;;;;;;13.22;60.49;98487.16;4985234;28;20720;-58
2022/05/06 04:09:45;;;;;;;;;;;;;;;13.16;61.04;98491.13;4987092;28;19926;-59
2022/05/06 04:12:14;;;;;;;;;;;;;;;13.14;61.31;98489.81;4981634;28;19973;-59
2022/05/06 04:14:52;;;;;;;;;;;;;;;13.40;60.67;98498.16;4981396;28;19930;-59
2022/05/06 04:17:22;;;;;;;;;;;;;;;13.23;60.74;98487.97;4983725;28;20291;-59
2022/05/06 04:25:49;;;;;;;;;;;;;;;13.40;60.15;98501.69;4984760;28;19933;-58
2022/05/06 04:28:22;;;;;;;;;;;;;;;13.54;59.96;98502.38;4992571;28;19930;-58
2022/05/06 04:30:56;;;;;;;;;;;;;;;13.44;60.37;98507.31;4975623;28;19976;-57
2022/05/06 04:33:26;;;;;;;;;;;;;;;13.46;59.73;98511.34;4980493;28;19930;-57
2022/05/06 04:35:54;;;;;;;;;;;;;;;13.32;59.75;98511.44;4977028;28;19932;-57
2022/05/06 04:38:26;;;;;;;;;;;;;;;13.44;59.85;98510.06;4975646;28;19926;-58
2022/05/06 04:40:56;;;;;;;;;;;;;;;13.40;60.07;98523.50;4976812;28;20394;-58
2022/05/06 04:43:25;;;;;;;;;;;;;;;13.32;59.72;98519.63;4982780;28;20388;-57
2022/05/06 04:45:56;;;;;;;;;;;;;;;13.38;58.15;98520.31;4977996;28;19926;-58
2022/05/06 04:48:31;;;;;;;;;;;;;;;13.37;58.94;98521.44;4978613;28;20390;-58
2022/05/06 04:51:02;;;;;;;;;;;;;;;13.17;58.51;98532.84;4979741;28;19942;-57
2022/05/06 04:53:32;;;;;;;;;;;;;;;13.14;58.55;98536.19;4982881;28;20298;-58
2022/05/06 04:56:07;;;;;;;;;;;;;;;13.34;58.80;98532.97;4977370;28;19926;-55
2022/05/06 04:58:39;;;;;;;;;;;;;;;13.32;59.21;98536.00;4982125;28;19937;-58
2022/05/06 05:01:14;;;;;;;;;;;;;;;13.14;59.01;98539.72;4982249;28;20262;-58
2022/05/06 05:03:43;;;;;;;;;;;;;;;13.15;59.09;98545.97;4981821;28;20012;-58
2022/05/06 05:06:11;;;;;;;;;;;;;;;13.29;58.55;98541.28;4979961;28;19963;-58
2022/05/06 05:08:40;;;;;;;;;;;;;;;13.13;58.90;98538.13;4996235;28;20377;-58
2022/05/06 05:11:10;;;;;;;;;;;;;;;13.34;58.40;98538.41;4978927;28;20434;-61
2022/05/06 05:13:47;;;;;;;;;;;;;;;13.63;56.25;98543.34;4976515;28;19933;-60
2022/05/06 05:16:27;;;;;;;;;;;;;;;13.60;56.82;98544.78;4977172;28;19926;-59
2022/05/06 05:18:55;;;;;;;;;;;;;;;13.84;57.10;98551.78;4975853;28;19926;-60
2022/05/06 05:21:24;;;;;;;;;;;;;;;13.91;56.33;98541.22;4982340;28;19926;-59
2022/05/06 05:23:53;;;;;;;;;;;;;;;13.96;54.80;98543.00;4975751;28;20015;-57
2022/05/06 05:29:17;;;;;;;;;;;;;;;13.99;56.32;98554.06;4983108;28;20012;-59
2022/05/06 05:31:47;;;;;;;;;;;;;;;13.73;56.76;98550.44;4984951;28;19976;-60
2022/05/06 05:34:18;;;;;;;;;;;;;;;13.97;56.03;98534.47;4988170;28;20421;-60
2022/05/06 05:36:48;;;;;;;;;;;;;;;13.96;56.79;98541.06;4979088;28;19933;-60
2022/05/06 05:39:20;;;;;;;;;;;;;;;13.98;56.16;98536.06;4973821;28;20294;-60
2022/05/06 05:41:54;;;;;;;;;;;;;;;14.01;56.45;98543.63;4982182;28;20404;-59
2022/05/06 05:49:59;;;;;;;;;;;;;;;14.09;55.70;98539.31;4975044;28;19926;-60
2022/05/06 05:52:31;;;;;;;;;;;;;;;14.07;55.43;98544.28;4981060;28;20383;-60
2022/05/06 05:54:59;;;;;;;;;;;;;;;14.06;55.48;98545.41;4972499;28;19930;-60
2022/05/06 05:57:32;;;;;;;;;;;;;;;13.95;55.23;98546.81;4985098;28;20013;-60
2022/05/06 06:00:02;;;;;;;;;;;;;;;14.07;55.29;98553.28;4978794;28;19949;-59
2022/05/06 06:02:41;;;;;;;;;;;;;;;14.21;56.00;98546.88;4973860;28;19938;-59
2022/05/06 06:05:12;;;;;;;;;;;;;;;14.32;54.05;98556.38;4972852;28;20145;-59
2022/05/06 06:07:43;;;;;;;;;;;;;;;14.51;54.18;98551.44;4980470;28;19926;-59
2022/05/06 06:10:14;;;;;;;;;;;;;;;14.42;54.02;98553.31;4978174;28;20315;-60
2022/05/06 06:12:42;;;;;;;;;;;;;;;14.33;52.92;98549.81;4979925;28;19993;-60
2022/05/06 06:15:12;;;;;;;;;;;;;;;14.21;53.66;98544.13;4984930;28;19981;-60
2022/05/06 06:17:42;;;;;;;;;;;;;;;14.07;54.62;98552.50;4984715;28;19932;-59
2022/05/06 06:20:12;;;;;;;;;;;;;;;13.97;54.39;98556.31;4989122;28;20404;-61
2022/05/06 06:22:44;;;;;;;;;;;;;;;14.04;54.64;98570.31;4985821;28;19940;-60
2022/05/06 06:25:13;;;;;;;;;;;;;;;13.98;54.86;98568.03;4980152;28;20025;-58
2022/05/06 06:27:40;;;;;;;;;;;;;;;14.24;54.19;98560.72;4982456;28;19981;-60
2022/05/06 06:30:17;;;;;;;;;;;;;;;14.30;54.35;98564.09;4980697;28;20274;-60
2022/05/06 06:33:12;;;;;;;;;;;;;;;14.34;53.10;98565.06;4973361;28;19977;-58
2022/05/06 06:35:39;;;;;;;;;;;;;;;14.40;53.42;98561.06;4978865;28;19933;-60
2022/05/06 06:38:08;;;;;;;;;;;;;;;14.31;53.43;98563.75;4964564;28;20290;-60
2022/05/06 06:40:40;;;;;;;;;;;;;;;14.40;53.67;98555.59;4972898;28;19932;-61
2022/05/06 06:43:08;;;;;;;;;;;;;;;14.37;53.56;98561.69;4975499;28;19972;-59
2022/05/06 06:45:56;;;;;;;;;;;;;;;14.47;53.16;98563.31;4977989;28;20015;-60
2022/05/06 06:48:58;;;;;;;;;;;;;;;14.72;52.83;98569.94;4965510;28;20004;-60
2022/05/06 06:51:34;;;;;;;;;;;;;;;14.73;52.44;98566.06;4975599;28;20146;-60
2022/05/06 06:54:02;;;;;;;;;;;;;;;15.00;54.08;98571.19;4975665;28;20005;-60
2022/05/06 06:56:31;;;;;;;;;;;;;;;14.88;54.29;98565.59;4973679;28;19937;-60
2022/05/06 06:58:59;;;;;;;;;;;;;;;14.77;54.08;98573.31;4976929;28;20004;-60
2022/05/06 07:01:27;;;;;;;;;;;;;;;14.82;52.62;98569.63;4971663;28;19957;-60
2022/05/06 07:03:55;;;;;;;;;;;;;;;14.75;51.56;98569.28;4971598;28;19926;-60
2022/05/06 07:12:20;;;;;;;;;;;;;;;15.04;53.37;98563.97;4973537;28;20400;-60
2022/05/06 07:14:48;;;;;;;;;;;;;;;15.22;51.95;98566.66;4973519;28;20458;-60
2022/05/06 07:17:16;;;;;;;;;;;;;;;15.43;51.97;98564.81;4978362;28;20284;-60
2022/05/06 07:19:48;;;;;;;;;;;;;;;15.46;52.89;98564.97;4985321;28;20438;-60
2022/05/06 07:22:17;;;;;;;;;;;;;;;15.58;52.13;98560.75;4976931;28;20378;-60
2022/05/06 07:24:53;;;;;;;;;;;;;;;15.67;50.00;98562.34;4973092;28;20016;-59
2022/05/06 07:27:22;;;;;;;;;;;;;;;15.73;49.41;98564.91;4976835;28;20286;-60
2022/05/06 07:29:50;;;;;;;;;;;;;;;15.80;51.03;98570.66;4975865;28;19934;-60
2022/05/06 07:32:18;;;;;;;;;;;;;;;15.76;48.56;98570.53;4976469;28;20598;-60
2022/05/06 07:34:46;;;;;;;;;;;;;;;15.85;47.66;98562.28;4976758;28;19929;-60
2022/05/06 07:37:14;;;;;;;;;;;;;;;15.75;46.57;98563.44;4974202;28;19956;-60
2022/05/06 07:39:44;;;;;;;;;;;;;;;15.51;46.61;98566.75;4974071;28;19926;-60
2022/05/06 07:42:12;;;;;;;;;;;;;;;15.67;45.86;98562.34;4971526;28;19962;-60
2022/05/06 07:44:40;;;;;;;;;;;;;;;15.67;48.65;98567.84;4973686;28;19926;-60
2022/05/06 07:47:08;;;;;;;;;;;;;;;15.60;47.84;98572.97;4973734;28;20348;-60
2022/05/06 07:49:36;;;;;;;;;;;;;;;15.78;49.19;98578.44;4976780;28;20294;-60
2022/05/06 07:52:04;;;;;;;;;;;;;;;15.83;48.50;98586.47;4972383;28;20338;-60
2022/05/06 07:54:32;;;;;;;;;;;;;;;15.98;47.00;98588.66;4974571;28;19934;-60
2022/05/06 07:57:02;;;;;;;;;;;;;;;15.61;45.16;98580.06;4975007;28;19926;-60
2022/05/06 07:59:30;;;;;;;;;;;;;;;15.53;45.53;98589.13;4974514;28;19934;-60
2022/05/06 08:05:08;;;;;;;;;;;;;;;15.85;43.93;98592.41;4973756;28;20029;-60
2022/05/06 08:07:36;;;;;;;;;;;;;;;15.90;44.16;98594.97;4974105;28;20445;-60
2022/05/06 08:10:06;;;;;;;;;;;;;;;15.95;43.02;98594.78;4973716;28;19926;-60
2022/05/06 08:12:35;;;;;;;;;;;;;;;15.90;41.71;98592.22;4976571;28;20366;-60
2022/05/06 08:15:03;;;;;;;;;;;;;;;15.85;43.21;98589.66;4978580;28;19926;-60
2022/05/06 08:17:32;;;;;;;;;;;;;;;16.14;44.88;98597.91;4977465;28;19977;-61
2022/05/06 08:20:00;;;;;;;;;;;;;;;16.12;42.83;98597.44;4978885;28;19926;-59
2022/05/06 08:22:28;;;;;;;;;;;;;;;16.19;41.82;98597.72;4979240;28;19926;-60
2022/05/06 08:24:56;;;;;;;;;;;;;;;15.97;41.15;98603.47;4980174;28;19930;-60
2022/05/06 08:28:13;;;;;;;;;;;;;;;16.08;42.33;98593.72;4977936;28;19930;-60
2022/05/06 08:30:41;;;;;;;;;;;;;;;16.05;41.60;98596.34;4977086;28;19983;-60
2022/05/06 08:33:10;;;;;;;;;;;;;;;16.20;42.37;98599.34;4979021;28;20041;-60
2022/05/06 08:35:38;;;;;;;;;;;;;;;16.34;42.18;98601.81;4979160;28;20094;-60
2022/05/06 08:38:07;;;;;;;;;;;;;;;16.43;40.81;98596.28;4980472;28;19929;-60
2022/05/06 08:40:35;;;;;;;;;;;;;;;16.28;41.52;98603.16;4978569;28;20374;-60
2022/05/06 08:43:04;;;;;;;;;;;;;;;16.21;41.42;98598.19;4975857;28;19930;-60
2022/05/06 08:51:11;;;;;;;;;;;;;;;16.43;41.24;98605.31;4977802;28;19938;-58
2022/05/06 08:53:40;;;;;;;;;;;;;;;16.52;41.95;98605.25;4975713;28;19926;-60
2022/05/06 08:56:09;;;;;;;;;;;;;;;16.67;40.78;98604.66;4975929;28;19937;-59
2022/05/06 08:58:37;;;;;;;;;;;;;;;16.74;40.85;98602.22;4974529;28;19930;-56
2022/05/06 09:01:10;;;;;;;;;;;;;;;16.69;39.56;98607.88;4973132;28;19926;-59
2022/05/06 09:03:43;;;;;;;;;;;;;;;16.79;39.81;98601.22;4972993;28;20422;-56
2022/05/06 09:06:17;;;;;;;;;;;;;;;16.84;40.44;98603.75;4974267;28;20390;-58
2022/05/06 09:08:45;;;;;;;;;;;;;;;17.05;39.83;98606.50;4979674;28;19930;-58
2022/05/06 09:11:13;;;;;;;;;;;;;;;16.98;39.10;98608.94;4978886;28;20725;-58
2022/05/06 09:13:58;;;;;;;;;;;;;;;16.96;39.35;98611.25;4976925;28;20021;-57
2022/05/06 09:16:44;;;;;;;;;;;;;;;17.04;38.69;98599.38;4981313;28;19926;-57
2022/05/06 09:19:13;;;;;;;;;;;;;;;17.03;38.87;98597.75;4982061;28;20248;-58
2022/05/06 09:21:42;;;;;;;;;;;;;;;17.09;39.99;98601.91;4977078;28;20004;-60
2022/05/06 09:24:17;;;;;;;;;;;;;;;17.02;40.30;98601.66;4977366;28;20004;-59
2022/05/06 09:26:55;;;;;;;;;;;;;;;16.93;39.00;98600.91;4976974;28;20375;-59
2022/05/06 09:29:30;;;;;;;;;;;;;;;16.99;39.25;98607.81;4981592;28;19933;-58
2022/05/06 09:32:17;;;;;;;;;;;;;;;17.07;39.14;98595.97;4976106;28;20214;-57
2022/05/06 09:34:47;;;;;;;;;;;;;;;17.42;41.02;98601.13;4981353;28;19926;-59
2022/05/06 09:37:31;;;;;;;;;;;;;;;17.50;38.63;98606.50;4975960;28;19985;-56
2022/05/06 09:40:03;;;;;;;;;;;;;;;17.67;40.78;98612.94;4978783;28;20002;-56
2022/05/06 09:42:32;;;;;;;;;;;;;;;17.73;39.92;98614.34;4976261;28;19969;-57
2022/05/06 09:45:01;;;;;;;;;;;;;;;17.56;37.93;98607.09;4974068;28;20311;-60
2022/05/06 09:47:29;;;;;;;;;;;;;;;17.37;39.49;98598.59;4977448;28;19932;-59
2022/05/06 09:50:01;;;;;;;;;;;;;;;17.45;38.86;98603.16;4976354;28;19980;-60
2022/05/06 09:52:29;;;;;;;;;;;;;;;17.52;38.73;98608.91;4976450;28;19969;-60
2022/05/06 09:54:57;;;;;;;;;;;;;;;17.43;38.79;98605.47;4975514;28;19973;-59
2022/05/06 10:00:18;;;;;;;;;;;;;;;17.56;37.65;98609.84;4979696;28;19926;-59
2022/05/06 10:02:46;;;;;;;;;;;;;;;17.64;37.79;98606.19;4974273;28;19933;-59
2022/05/06 10:05:15;;;;;;;;;;;;;;;17.64;39.16;98605.41;4972913;28;20013;-58
2022/05/06 10:07:44;;;;;;;;;;;;;;;17.61;38.49;98611.56;4971373;28;20374;-60
2022/05/06 10:10:16;;;;;;;;;;;;;;;17.65;39.08;98607.81;4977379;28;19929;-59
2022/05/06 10:12:46;;;;;;;;;;;;;;;17.57;38.56;98608.69;4973863;28;19925;-59
2022/05/06 10:15:14;;;;;;;;;;;;;;;17.43;38.72;98610.97;4972459;28;19930;-59
2022/05/06 10:17:49;;;;;;;;;;;;;;;17.55;38.21;98613.72;4977496;28;20550;-59
2022/05/06 10:20:36;;;;;;;;;;;;;;;17.74;40.39;98614.03;4971950;28;19949;-59
2022/05/06 10:23:07;;;;;;;;;;;;;;;17.79;39.00;98613.81;4972999;28;19996;-59
2022/05/06 10:25:54;;;;;;;;;;;;;;;17.58;37.84;98607.56;4977089;28;19969;-58
2022/05/06 10:34:29;;;;;;;;;;;;;;;18.10;39.08;98604.19;4972552;28;19926;-59
2022/05/06 10:36:58;;;;;;;;;;;;;;;18.18;38.81;98602.50;4973412;28;19930;-59
2022/05/06 10:39:27;;;;;;;;;;;;;;;18.20;37.66;98598.22;4975050;28;19972;-59
2022/05/06 10:42:02;;;;;;;;;;;;;;;18.16;38.87;98596.50;4968169;28;19933;-59
2022/05/06 10:44:34;;;;;;;;;;;;;;;18.09;37.04;98591.59;4979061;28;20386;-58
2022/05/06 10:47:03;;;;;;;;;;;;;;;18.13;37.26;98592.53;4972224;28;19933;-59
2022/05/06 10:49:46;;;;;;;;;;;;;;;17.98;37.24;98584.97;4973929;28;20003;-60
2022/05/06 10:52:33;;;;;;;;;;;;;;;17.77;37.42;98590.56;4976955;28;20453;-59
2022/05/06 10:55:03;;;;;;;;;;;;;;;17.78;38.02;98587.44;4972492;28;19981;-57
2022/05/06 10:57:33;;;;;;;;;;;;;;;17.68;37.64;98598.84;4978287;28;19925;-59
2022/05/06 11:00:02;;;;;;;;;;;;;;;17.68;37.72;98601.59;4972492;28;19926;-59
2022/05/06 11:02:36;;;;;;;;;;;;;;;17.81;37.74;98599.72;4972418;28;19926;-59
2022/05/06 11:05:05;;;;;;;;;;;;;;;17.69;37.87;98603.22;4976166;28;20385;-60
2022/05/06 11:07:34;;;;;;;;;;;;;;;17.67;37.66;98596.47;4974112;28;19934;-59
2022/05/06 11:10:09;;;;;;;;;;;;;;;17.87;38.34;98597.56;4973512;28;20380;-60
2022/05/06 11:12:40;;;;;;;;;;;;;;;17.80;37.59;98589.88;4975533;28;20301;-60
2022/05/06 11:15:10;;;;;;;;;;;;;;;17.81;38.02;98594.22;4975335;28;20353;-59
2022/05/06 11:17:39;;;;;;;;;;;;;;;17.91;37.74;98590.22;4974928;28;20287;-59
2022/05/06 11:20:16;;;;;;;;;;;;;;;17.89;38.21;98587.00;4972621;28;20040;-59
2022/05/06 11:22:53;;;;;;;;;;;;;;;17.90;37.96;98583.13;4974314;28;20453;-59
2022/05/06 11:28:15;;;;;;;;;;;;;;;17.93;38.51;98587.94;4974808;28;19930;-59
2022/05/06 11:30:44;;;;;;;;;;;;;;;18.05;38.44;98585.19;4980535;28;20351;-59
2022/05/06 11:33:20;;;;;;;;;;;;;;;18.10;38.29;98595.16;4974107;28;20127;-55
2022/05/06 11:35:50;;;;;;;;;;;;;;;18.16;38.58;98586.31;4981215;28;19977;-56
2022/05/06 11:38:29;;;;;;;;;;;;;;;18.12;38.19;98579.91;4981736;28;20036;-56
2022/05/06 11:41:00;;;;;;;;;;;;;;;18.18;38.62;98591.50;4971596;28;19926;-57
2022/05/06 11:43:31;;;;;;;;;;;;;;;18.21;37.86;98577.81;4972226;28;19989;-59
2022/05/06 11:48:44;;;;;;;;;;;;;;;18.52;38.33;98570.91;4972027;28;20449;-59
2022/05/06 11:51:14;;;;;;;;;;;;;;;18.56;38.18;98571.81;4976688;28;20017;-58
2022/05/06 11:53:42;;;;;;;;;;;;;;;18.48;37.60;98581.81;4979123;28;19937;-59
2022/05/06 11:56:12;;;;;;;;;;;;;;;18.44;37.94;98574.63;4981279;28;20407;-59
2022/05/06 11:58:40;;;;;;;;;;;;;;;18.47;37.81;98574.69;4975321;28;19973;-58
2022/05/06 12:01:08;;;;;;;;;;;;;;;18.43;37.74;98570.22;4977234;28;19997;-59
2022/05/06 12:03:37;;;;;;;;;;;;;;;18.36;37.99;98576.31;4975231;28;19926;-59
2022/05/06 12:06:26;;;;;;;;;;;;;;;18.26;37.93;98580.34;4976609;28;19925;-59
2022/05/06 12:09:07;;;;;;;;;;;;;;;18.29;38.32;98567.88;4976943;28;19980;-59
2022/05/06 12:11:37;;;;;;;;;;;;;;;18.29;38.35;98565.91;4971975;28;19926;-60
2022/05/06 12:14:06;;;;;;;;;;;;;;;18.43;38.30;98567.47;4982784;28;19926;-57
2022/05/06 12:16:34;;;;;;;;;;;;;;;18.45;38.61;98570.72;4978161;28;19988;-56
2022/05/06 12:19:02;;;;;;;;;;;;;;;18.52;38.18;98577.22;4982071;28;19949;-56
2022/05/06 12:21:29;;;;;;;;;;;;;;;18.43;37.97;98571.06;4978756;28;20440;-56
2022/05/06 12:23:58;;;;;;;;;;;;;;;18.43;38.00;98572.97;4979282;28;19926;-56
2022/05/06 12:26:30;;;;;;;;;;;;;;;18.52;38.00;98568.16;4978295;28;19930;-59
2022/05/06 12:28:59;;;;;;;;;;;;;;;18.69;38.06;98561.59;4979529;28;19933;-59
2022/05/06 12:31:29;;;;;;;;;;;;;;;18.57;37.87;98560.47;4982655;28;19989;-59
2022/05/06 12:34:01;;;;;;;;;;;;;;;18.63;38.20;98555.50;4976352;28;19930;-58
2022/05/06 12:36:29;;;;;;;;;;;;;;;18.53;37.96;98562.31;4981452;28;20016;-59
2022/05/06 12:38:56;;;;;;;;;;;;;;;18.55;38.75;98557.28;4974451;28;19925;-58
2022/05/06 12:41:25;;;;;;;;;;;;;;;18.52;38.79;98562.66;4977713;28;20390;-56
2022/05/06 12:43:57;;;;;;;;;;;;;;;18.73;38.99;98563.31;4978116;28;19926;-58
2022/05/06 12:46:26;;;;;;;;;;;;;;;18.96;38.14;98555.34;4977780;28;19932;-59
2022/05/06 12:51:40;;;;;;;;;;;;;;;18.92;37.70;98564.63;4979950;28;19933;-57
2022/05/06 12:54:09;;;;;;;;;;;;;;;19.03;37.82;98557.47;4974428;28;19957;-57
2022/05/06 12:56:37;;;;;;;;;;;;;;;19.11;38.44;98570.28;4980942;28;19972;-57
2022/05/06 12:59:06;;;;;;;;;;;;;;;18.99;37.97;98559.31;4979622;28;20382;-58
2022/05/06 13:01:39;;;;;;;;;;;;;;;19.16;37.92;98560.97;4975714;28;19934;-58
2022/05/06 13:04:07;;;;;;;;;;;;;;;19.30;38.00;98553.09;4977408;28;20015;-58
2022/05/06 13:06:35;;;;;;;;;;;;;;;19.23;37.92;98559.22;4977519;28;19980;-59
2022/05/06 13:09:04;;;;;;;;;;;;;;;19.05;37.42;98555.16;4975712;28;20009;-58
2022/05/06 13:11:32;;;;;;;;;;;;;;;19.17;38.01;98549.56;4976090;28;20247;-58
2022/05/06 13:14:00;;;;;;;;;;;;;;;19.11;37.75;98553.75;4980119;28;19926;-57
2022/05/06 13:16:29;;;;;;;;;;;;;;;19.22;38.10;98552.06;4973879;28;20283;-56
2022/05/06 13:18:58;;;;;;;;;;;;;;;19.05;37.72;98549.66;4977604;28;20363;-58
2022/05/06 13:21:26;;;;;;;;;;;;;;;18.83;37.70;98542.75;4975923;28;19930;-56
2022/05/06 13:23:58;;;;;;;;;;;;;;;18.84;38.00;98536.88;4977811;28;19928;-56
2022/05/06 13:26:26;;;;;;;;;;;;;;;18.84;37.76;98536.88;4976120;28;19926;-57
2022/05/06 13:28:54;;;;;;;;;;;;;;;19.06;37.74;98543.78;4973804;28;19960;-57
2022/05/06 13:31:21;;;;;;;;;;;;;;;19.02;37.15;98542.91;4979226;28;19972;-57
2022/05/06 13:33:50;;;;;;;;;;;;;;;18.93;37.79;98538.69;4979001;28;20437;-58
2022/05/06 13:36:19;;;;;;;;;;;;;;;18.73;38.69;98541.28;4981061;28;19926;-57
2022/05/06 13:39:12;;;;;;;;;;;;;;;18.62;38.16;98536.59;4975667;28;19930;-57
2022/05/06 13:41:43;;;;;;;;;;;;;;;18.63;37.92;98543.72;4974938;28;19969;-58
2022/05/06 13:44:11;;;;;;;;;;;;;;;18.74;37.65;98545.63;4979470;28;19949;-58
2022/05/06 13:46:38;;;;;;;;;;;;;;;18.70;38.18;98539.25;4973589;28;20034;-57
2022/05/06 13:49:07;;;;;;;;;;;;;;;18.63;37.63;98539.00;4976601;28;19925;-58
2022/05/06 13:51:36;;;;;;;;;;;;;;;18.73;38.49;98538.53;4974419;28;19926;-57
2022/05/06 13:54:05;;;;;;;;;;;;;;;18.68;38.18;98538.00;4980288;28;20438;-56
2022/05/06 13:59:24;;;;;;;;;;;;;;;18.99;37.89;98540.03;4977970;28;20034;-56
2022/05/06 14:01:52;;;;;;;;;;;;;;;18.98;38.39;98535.69;4975517;28;20461;-55
2022/05/06 14:04:23;;;;;;;;;;;;;;;19.31;37.94;98536.19;4973164;28;19930;-58
2022/05/06 14:07:12;;;;;;;;;;;;;;;19.14;37.52;98531.03;4975552;28;19948;-58
2022/05/06 14:09:40;;;;;;;;;;;;;;;19.15;38.03;98532.63;4976364;28;19957;-58
2022/05/06 14:12:33;;;;;;;;;;;;;;;19.10;37.48;98536.44;4974277;28;19973;-58